Aviation Digital Data Service (ADDS)

Output produced by METARs form (1945 UTC 13 November 2019)
found at http://www.aviationweather.gov/metar/data/
 
KGXY 131856Z AUTO 02013G21KT 10SM CLR 13/M04 A3000 RMK AO2 SLP168 T01331039